createdAt,value
2022-12-03T00:03:24.959Z,3.55
2022-12-03T00:08:28.572Z,3.70
2022-12-03T00:13:32.145Z,4.05
2022-12-03T00:18:37.319Z,4.32
2022-12-03T00:23:42.415Z,2.88
2022-12-03T00:28:46.221Z,4.20
2022-12-03T00:33:51.483Z,3.72
2022-12-03T00:38:55.098Z,4.53
2022-12-03T00:43:58.635Z,3.17
2022-12-03T00:49:03.833Z,4.80
2022-12-03T00:54:07.397Z,3.47
2022-12-03T00:59:10.951Z,3.22
2022-12-03T01:04:16.211Z,3.42
2022-12-03T01:09:19.951Z,4.45
2022-12-03T01:14:23.711Z,4.15
2022-12-03T01:19:28.929Z,6.03
2022-12-03T01:24:32.477Z,3.50
2022-12-03T01:29:36.042Z,3.95
2022-12-03T01:34:41.266Z,3.97
2022-12-03T01:39:45.024Z,3.63
2022-12-03T01:44:51.618Z,4.50
2022-12-03T01:50:00.861Z,5.75
2022-12-03T01:55:08.276Z,5.50
2022-12-03T02:00:15.391Z,5.32
2022-12-03T02:05:23.289Z,4.97
2022-12-03T02:10:29.013Z,4.32
2022-12-03T02:15:32.667Z,4.23
2022-12-03T02:20:46.742Z,3.33
2022-12-03T02:25:52.930Z,4.35
2022-12-03T02:30:56.929Z,3.72
2022-12-03T02:36:03.560Z,5.63
2022-12-03T02:41:12.977Z,7.60
2022-12-03T02:46:16.601Z,7.50
2022-12-03T02:51:20.202Z,4.53
2022-12-03T02:56:29.444Z,6.40
2022-12-03T03:01:33.464Z,6.03
2022-12-03T03:06:37.260Z,3.72
2022-12-03T03:11:42.487Z,4.97
2022-12-03T03:16:46.089Z,4.47
2022-12-03T03:21:49.777Z,5.78
2022-12-03T03:26:55.381Z,6.90
2022-12-03T03:32:00.315Z,4.07
2022-12-03T03:37:03.978Z,5.22
2022-12-03T03:42:09.306Z,4.22
2022-12-03T03:47:13.910Z,4.95
2022-12-03T03:52:18.013Z,4.47
2022-12-03T03:57:23.430Z,5.80
2022-12-03T04:02:28.511Z,3.80
2022-12-03T04:07:32.183Z,3.65
2022-12-03T04:12:38.299Z,4.70
2022-12-03T04:17:41.949Z,4.57
2022-12-03T04:22:45.493Z,4.05
2022-12-03T04:27:50.688Z,6.57
2022-12-03T04:32:54.309Z,60.28
2022-12-03T04:37:57.855Z,7.45
2022-12-03T04:43:04.107Z,6.00
2022-12-03T04:48:07.822Z,4.30
2022-12-03T04:53:11.456Z,4.68
2022-12-03T04:58:16.741Z,5.18
2022-12-03T05:03:25.794Z,4.53
2022-12-03T05:08:29.565Z,3.95
2022-12-03T05:13:34.796Z,5.90
2022-12-03T05:18:39.099Z,5.28
2022-12-03T05:23:42.686Z,3.97
2022-12-03T05:28:47.926Z,3.58
2022-12-03T05:33:51.505Z,3.78
2022-12-03T05:38:55.071Z,6.57
2022-12-03T05:44:15.087Z,4.95
2022-12-03T05:49:22.560Z,4.43
2022-12-03T05:54:26.107Z,4.28
2022-12-03T05:59:31.344Z,4.72
2022-12-03T06:04:34.880Z,4.30
2022-12-03T06:09:38.429Z,4.05
2022-12-03T06:14:43.624Z,5.70
2022-12-03T06:19:47.254Z,4.45
2022-12-03T06:24:50.918Z,3.45
2022-12-03T06:29:56.182Z,4.70
2022-12-03T06:34:59.733Z,4.25
2022-12-03T06:40:03.448Z,5.03
2022-12-03T06:45:09.356Z,3.42
2022-12-03T06:50:13.292Z,7.37
2022-12-03T06:55:16.964Z,3.97
2022-12-03T07:00:23.129Z,4.00
2022-12-03T07:05:26.676Z,5.22
2022-12-03T07:10:30.365Z,4.15
2022-12-03T07:15:35.593Z,4.70
2022-12-03T07:20:39.146Z,4.40
2022-12-03T07:25:42.658Z,2.83
2022-12-03T07:30:47.889Z,5.90
2022-12-03T07:35:51.448Z,4.45
2022-12-03T07:40:54.994Z,3.78
2022-12-03T07:46:00.222Z,4.18
2022-12-03T07:51:03.814Z,4.43
2022-12-03T07:56:08.253Z,5.95
2022-12-03T08:01:13.624Z,4.45
2022-12-03T08:06:17.249Z,3.33
2022-12-03T08:11:20.792Z,8.38
2022-12-03T08:16:26.664Z,3.58
2022-12-03T08:21:35.188Z,4.10
2022-12-03T08:26:38.748Z,5.65
2022-12-03T08:31:48.184Z,4.90
2022-12-03T08:36:56.854Z,5.55
2022-12-03T08:42:13.684Z,3.40
2022-12-03T08:47:22.446Z,3.45
2022-12-03T08:52:32.276Z,4.18
2022-12-03T08:57:36.594Z,4.78
2022-12-03T09:02:46.896Z,3.00
2022-12-03T09:07:50.575Z,3.42
2022-12-03T09:12:54.956Z,4.05
2022-12-03T09:18:00.158Z,3.83
2022-12-03T09:23:04.140Z,2.92
2022-12-03T09:28:07.684Z,4.25
2022-12-03T09:33:13.750Z,3.70
2022-12-03T09:38:17.325Z,4.22
2022-12-03T09:43:21.462Z,4.22
2022-12-03T09:48:26.680Z,4.85
2022-12-03T09:53:31.410Z,4.10
2022-12-03T09:58:35.166Z,7.75
2022-12-03T10:03:45.598Z,2.85
2022-12-03T10:08:50.027Z,4.00
2022-12-03T10:13:55.947Z,5.75
2022-12-03T10:19:01.969Z,4.43
2022-12-03T10:24:26.496Z,5.00
2022-12-03T10:29:34.308Z,3.28
2022-12-03T10:34:41.313Z,5.40
2022-12-03T10:39:56.560Z,3.42
2022-12-03T10:45:19.440Z,4.57
2022-12-03T10:50:24.646Z,3.72
2022-12-03T10:55:29.754Z,4.32
2022-12-03T11:00:33.288Z,4.63
2022-12-03T11:05:39.285Z,3.85
2022-12-03T11:10:43.072Z,5.18
2022-12-03T11:15:46.862Z,5.13
2022-12-03T11:21:13.288Z,4.20
2022-12-03T11:26:19.560Z,5.45
2022-12-03T11:37:18.867Z,5.65
2022-12-03T11:42:41.299Z,5.32
2022-12-03T11:47:46.899Z,5.07
2022-12-03T11:52:56.349Z,4.57
2022-12-03T11:58:00.944Z,6.07
2022-12-03T12:03:04.635Z,5.03
2022-12-03T12:08:19.801Z,4.35
2022-12-03T12:13:50.716Z,4.47
2022-12-03T12:18:55.736Z,5.35
2022-12-03T12:24:34.520Z,6.30
2022-12-03T12:29:39.545Z,4.53
2022-12-03T12:34:45.134Z,6.15
2022-12-03T12:39:53.445Z,5.67
2022-12-03T12:45:01.362Z,4.65
2022-12-03T12:50:11.639Z,5.00
2022-12-03T12:55:17.079Z,7.25
2022-12-03T13:00:22.892Z,5.85
2022-12-03T13:05:26.617Z,5.27
2022-12-03T13:10:41.500Z,6.35
2022-12-03T13:15:50.429Z,5.78
2022-12-03T13:20:54.624Z,5.82
2022-12-03T13:26:13.159Z,6.38
2022-12-03T13:31:28.259Z,6.20
2022-12-03T13:36:41.295Z,6.30
2022-12-03T13:41:46.994Z,8.63
2022-12-03T13:46:50.544Z,7.40
2022-12-03T13:51:54.134Z,7.05
2022-12-03T13:56:59.323Z,7.53
2022-12-03T14:02:02.925Z,10.57
2022-12-03T14:07:06.801Z,12.15
2022-12-03T14:12:12.008Z,8.40
2022-12-03T14:17:15.654Z,9.65
2022-12-03T14:22:19.208Z,10.60
2022-12-03T14:27:25.055Z,10.32
2022-12-03T14:32:28.684Z,11.47
2022-12-03T14:37:32.935Z,11.25
2022-12-03T14:42:38.381Z,9.52
2022-12-03T14:47:41.904Z,7.47
2022-12-03T14:52:45.470Z,9.77
2022-12-03T14:57:50.640Z,9.05
2022-12-03T15:02:54.236Z,10.35
2022-12-03T15:07:57.953Z,11.65
2022-12-03T15:13:03.203Z,8.85
2022-12-03T15:18:06.839Z,10.13
2022-12-03T15:23:14.293Z,9.18
2022-12-03T15:28:19.947Z,9.27
2022-12-03T15:33:23.515Z,10.90
2022-12-03T15:38:27.056Z,11.35
2022-12-03T15:43:32.251Z,9.18
2022-12-03T15:48:35.780Z,8.18
2022-12-03T15:53:39.377Z,11.48
2022-12-03T15:58:44.628Z,11.10
2022-12-03T16:03:48.197Z,11.90
2022-12-03T16:08:51.803Z,11.80
2022-12-03T16:13:57.087Z,11.38
2022-12-03T16:19:00.706Z,10.70
2022-12-03T16:24:04.283Z,9.77
2022-12-03T16:29:09.491Z,10.25
2022-12-03T16:34:13.053Z,13.93
2022-12-03T16:39:17.419Z,11.93
2022-12-03T16:44:22.648Z,10.93
2022-12-03T16:49:26.245Z,12.00
2022-12-03T16:54:29.779Z,10.82
2022-12-03T16:59:34.987Z,11.55
2022-12-03T17:04:38.559Z,10.18
2022-12-03T17:09:42.136Z,10.48
2022-12-03T17:14:47.397Z,10.05
2022-12-03T17:19:51.128Z,14.23
2022-12-03T17:24:57.891Z,13.73
2022-12-03T17:30:05.429Z,11.65
2022-12-03T17:35:10.871Z,12.45
2022-12-03T17:40:15.641Z,16.17
2022-12-03T17:45:20.936Z,11.23
2022-12-03T17:50:24.518Z,12.55
2022-12-03T17:55:38.322Z,11.93
2022-12-03T18:00:48.072Z,14.50
2022-12-03T18:05:51.643Z,13.40
2022-12-03T18:10:55.217Z,15.00
2022-12-03T18:16:00.477Z,15.98
2022-12-03T18:21:04.251Z,22.13
2022-12-03T18:26:08.035Z,15.95
2022-12-03T18:31:15.453Z,17.08
2022-12-03T18:36:22.962Z,18.75
2022-12-03T18:41:26.764Z,24.48
2022-12-03T18:47:02.068Z,26.88
2022-12-03T18:51:59.500Z,23.30
2022-12-03T18:57:03.347Z,30.63
2022-12-03T19:02:11.614Z,28.15
2022-12-03T19:07:16.769Z,26.77
2022-12-03T19:12:20.356Z,31.85
2022-12-03T19:17:25.560Z,31.83
2022-12-03T19:22:29.095Z,32.65
2022-12-03T19:27:32.951Z,30.10
2022-12-03T19:32:38.227Z,31.10
2022-12-03T19:37:41.865Z,31.60
2022-12-03T19:42:45.508Z,30.52
2022-12-03T19:47:50.834Z,28.98
2022-12-03T19:52:54.360Z,32.08
2022-12-03T19:57:58.014Z,28.00
2022-12-03T20:03:03.445Z,31.45
2022-12-03T20:08:08.347Z,28.03
2022-12-03T20:13:11.970Z,35.58
2022-12-03T20:18:17.141Z,29.95
2022-12-03T20:23:20.691Z,31.95
2022-12-03T20:28:24.281Z,28.92
2022-12-03T20:33:29.736Z,33.95
2022-12-03T20:38:33.366Z,32.33
2022-12-03T20:43:37.252Z,29.83
2022-12-03T20:48:43.444Z,29.00
2022-12-03T20:53:47.351Z,30.50
2022-12-03T20:58:51.264Z,28.00
2022-12-03T21:03:57.644Z,27.33
2022-12-03T21:14:05.330Z,27.60
2022-12-03T21:19:10.523Z,27.80
2022-12-03T21:24:14.253Z,28.85
2022-12-03T21:29:17.960Z,25.80
2022-12-03T21:34:24.047Z,26.00
2022-12-03T21:39:27.613Z,24.50
2022-12-03T21:44:31.315Z,22.83
2022-12-03T21:49:36.595Z,20.00
2022-12-03T21:54:40.250Z,19.35
2022-12-03T21:59:43.818Z,23.85
2022-12-03T22:04:52.622Z,18.23
2022-12-03T22:09:56.381Z,20.67
2022-12-03T22:15:00.155Z,19.25
2022-12-03T22:20:06.675Z,17.35
2022-12-03T22:25:10.447Z,17.90
2022-12-03T22:30:14.313Z,19.33
2022-12-03T22:35:19.599Z,21.75
2022-12-03T22:40:23.177Z,21.25
2022-12-03T22:45:26.757Z,19.63
2022-12-03T22:50:32.011Z,17.77
2022-12-03T22:55:35.592Z,19.92
2022-12-03T23:00:40.598Z,13.35
2022-12-03T23:05:46.026Z,13.10
2022-12-03T23:10:51.351Z,11.33
2022-12-03T23:15:54.985Z,13.05
2022-12-03T23:21:00.661Z,11.95
2022-12-03T23:26:05.659Z,13.83
2022-12-03T23:31:18.216Z,11.25
2022-12-03T23:36:24.776Z,11.00
2022-12-03T23:41:28.525Z,13.90
2022-12-03T23:46:32.149Z,11.50
2022-12-03T23:51:37.509Z,13.68
2022-12-03T23:56:41.049Z,10.57
